sensor_id;sensor_type;location;lat;lon;timestamp;pressure;altitude;pressure_sealevel;temperature;humidity
41044;BME280;51680;49.806;18.774;2022-10-17T00:00:28;98424.34;;;16.66;69.39
41044;BME280;51680;49.806;18.774;2022-10-17T00:03:32;98434.50;;;16.60;69.31
41044;BME280;51680;49.806;18.774;2022-10-17T00:06:33;98434.16;;;16.64;69.40
41044;BME280;51680;49.806;18.774;2022-10-17T00:09:54;98429.88;;;16.51;69.67
41044;BME280;51680;49.806;18.774;2022-10-17T00:12:56;98437.94;;;16.60;69.24
41044;BME280;51680;49.806;18.774;2022-10-17T00:15:57;98425.63;;;16.61;69.39
41044;BME280;51680;49.806;18.774;2022-10-17T00:19:01;98428.97;;;16.63;69.24
41044;BME280;51680;49.806;18.774;2022-10-17T00:22:02;98431.44;;;16.53;69.47
41044;BME280;51680;49.806;18.774;2022-10-17T00:25:05;98426.47;;;16.61;69.22
41044;BME280;51680;49.806;18.774;2022-10-17T00:28:07;98431.75;;;16.61;69.12
41044;BME280;51680;49.806;18.774;2022-10-17T00:31:09;98436.16;;;16.61;68.88
41044;BME280;51680;49.806;18.774;2022-10-17T00:34:12;98427.91;;;16.65;68.70
41044;BME280;51680;49.806;18.774;2022-10-17T00:37:14;98436.06;;;16.62;68.71
41044;BME280;51680;49.806;18.774;2022-10-17T00:40:16;98427.69;;;16.68;68.46
41044;BME280;51680;49.806;18.774;2022-10-17T00:43:20;98436.78;;;16.64;68.54
41044;BME280;51680;49.806;18.774;2022-10-17T00:46:23;98439.41;;;16.64;68.92
41044;BME280;51680;49.806;18.774;2022-10-17T00:49:29;98443.56;;;16.56;68.68
41044;BME280;51680;49.806;18.774;2022-10-17T00:52:32;98439.66;;;16.61;68.43
41044;BME280;51680;49.806;18.774;2022-10-17T00:55:37;98444.19;;;16.59;68.69
41044;BME280;51680;49.806;18.774;2022-10-17T00:58:39;98449.25;;;16.62;68.34
41044;BME280;51680;49.806;18.774;2022-10-17T01:01:45;98444.69;;;16.64;68.22
41044;BME280;51680;49.806;18.774;2022-10-17T01:04:52;98448.09;;;16.66;68.35
41044;BME280;51680;49.806;18.774;2022-10-17T01:07:55;98444.41;;;16.56;68.21
41044;BME280;51680;49.806;18.774;2022-10-17T01:11:03;98447.97;;;16.55;68.54
41044;BME280;51680;49.806;18.774;2022-10-17T01:14:11;98444.19;;;16.59;68.32
41044;BME280;51680;49.806;18.774;2022-10-17T01:17:23;98439.16;;;16.56;68.17
41044;BME280;51680;49.806;18.774;2022-10-17T01:20:59;98443.34;;;16.59;68.12
41044;BME280;51680;49.806;18.774;2022-10-17T01:27:52;98441.34;;;16.62;68.13
41044;BME280;51680;49.806;18.774;2022-10-17T01:31:06;98436.72;;;16.53;68.01
41044;BME280;51680;49.806;18.774;2022-10-17T01:34:14;98437.66;;;16.52;68.11
41044;BME280;51680;49.806;18.774;2022-10-17T01:37:21;98433.53;;;16.61;68.07
41044;BME280;51680;49.806;18.774;2022-10-17T01:40:28;98437.03;;;16.61;67.92
41044;BME280;51680;49.806;18.774;2022-10-17T01:43:36;98435.97;;;16.64;67.84
41044;BME280;51680;49.806;18.774;2022-10-17T01:46:42;98443.00;;;16.63;67.96
41044;BME280;51680;49.806;18.774;2022-10-17T01:49:46;98443.53;;;16.68;67.86
41044;BME280;51680;49.806;18.774;2022-10-17T01:52:52;98435.81;;;16.65;67.52
41044;BME280;51680;49.806;18.774;2022-10-17T01:55:56;98440.28;;;16.65;67.73
41044;BME280;51680;49.806;18.774;2022-10-17T01:59:00;98435.03;;;16.52;68.06
41044;BME280;51680;49.806;18.774;2022-10-17T02:02:07;98439.34;;;16.53;67.72
41044;BME280;51680;49.806;18.774;2022-10-17T02:05:10;98439.75;;;16.60;67.79
41044;BME280;51680;49.806;18.774;2022-10-17T02:08:12;98437.44;;;16.55;67.85
41044;BME280;51680;49.806;18.774;2022-10-17T02:11:16;98432.56;;;16.62;67.45
41044;BME280;51680;49.806;18.774;2022-10-17T02:14:24;98427.75;;;16.56;67.54
41044;BME280;51680;49.806;18.774;2022-10-17T02:17:42;98414.66;;;16.54;67.42
41044;BME280;51680;49.806;18.774;2022-10-17T02:20:50;98430.47;;;16.54;67.51
41044;BME280;51680;49.806;18.774;2022-10-17T02:23:59;98433.13;;;16.54;67.65
41044;BME280;51680;49.806;18.774;2022-10-17T02:27:10;98430.06;;;16.48;67.76
41044;BME280;51680;49.806;18.774;2022-10-17T02:30:22;98429.25;;;16.47;68.01
41044;BME280;51680;49.806;18.774;2022-10-17T02:33:32;98437.56;;;16.54;67.64
41044;BME280;51680;49.806;18.774;2022-10-17T02:36:39;98433.88;;;16.56;67.63
41044;BME280;51680;49.806;18.774;2022-10-17T02:39:44;98437.03;;;16.61;67.32
41044;BME280;51680;49.806;18.774;2022-10-17T02:42:48;98439.00;;;16.58;67.39
41044;BME280;51680;49.806;18.774;2022-10-17T02:45:52;98439.16;;;16.56;67.30
41044;BME280;51680;49.806;18.774;2022-10-17T02:48:58;98440.50;;;16.49;67.80
41044;BME280;51680;49.806;18.774;2022-10-17T02:52:08;98445.59;;;16.52;67.62
41044;BME280;51680;49.806;18.774;2022-10-17T02:55:15;98451.38;;;16.57;67.55
41044;BME280;51680;49.806;18.774;2022-10-17T02:58:37;98461.28;;;16.54;67.41
41044;BME280;51680;49.806;18.774;2022-10-17T03:01:39;98460.63;;;16.75;66.99
41044;BME280;51680;49.806;18.774;2022-10-17T03:04:44;98466.91;;;16.85;66.86
41044;BME280;51680;49.806;18.774;2022-10-17T03:07:46;98467.19;;;16.93;66.46
41044;BME280;51680;49.806;18.774;2022-10-17T03:10:48;98471.53;;;16.94;66.75
41044;BME280;51680;49.806;18.774;2022-10-17T03:13:50;98478.47;;;16.95;66.21
41044;BME280;51680;49.806;18.774;2022-10-17T03:16:52;98478.25;;;16.98;66.06
41044;BME280;51680;49.806;18.774;2022-10-17T03:19:55;98479.75;;;16.90;66.27
41044;BME280;51680;49.806;18.774;2022-10-17T03:22:58;98477.97;;;16.90;66.21
41044;BME280;51680;49.806;18.774;2022-10-17T03:26:02;98477.22;;;16.88;66.29
41044;BME280;51680;49.806;18.774;2022-10-17T03:29:06;98474.06;;;16.83;66.09
41044;BME280;51680;49.806;18.774;2022-10-17T03:32:08;98477.00;;;16.91;65.99
41044;BME280;51680;49.806;18.774;2022-10-17T03:35:12;98482.28;;;16.91;65.99
41044;BME280;51680;49.806;18.774;2022-10-17T03:38:14;98486.72;;;16.91;65.92
41044;BME280;51680;49.806;18.774;2022-10-17T03:41:16;98485.25;;;16.87;65.97
41044;BME280;51680;49.806;18.774;2022-10-17T03:44:18;98489.44;;;16.89;65.90
41044;BME280;51680;49.806;18.774;2022-10-17T03:47:19;98487.06;;;16.86;66.02
41044;BME280;51680;49.806;18.774;2022-10-17T03:50:24;98495.69;;;16.88;65.76
41044;BME280;51680;49.806;18.774;2022-10-17T03:53:27;98499.81;;;16.92;65.65
41044;BME280;51680;49.806;18.774;2022-10-17T03:56:28;98505.06;;;16.92;66.00
41044;BME280;51680;49.806;18.774;2022-10-17T03:59:37;98502.34;;;16.94;65.79
41044;BME280;51680;49.806;18.774;2022-10-17T04:02:48;98498.13;;;16.91;65.75
41044;BME280;51680;49.806;18.774;2022-10-17T04:05:57;98501.06;;;16.99;65.28
41044;BME280;51680;49.806;18.774;2022-10-17T04:08:59;98516.44;;;17.05;65.42
41044;BME280;51680;49.806;18.774;2022-10-17T04:12:10;98510.81;;;17.10;65.43
41044;BME280;51680;49.806;18.774;2022-10-17T04:15:12;98499.66;;;17.06;65.44
41044;BME280;51680;49.806;18.774;2022-10-17T04:18:14;98499.53;;;17.08;65.25
41044;BME280;51680;49.806;18.774;2022-10-17T04:21:17;98497.22;;;17.03;65.17
41044;BME280;51680;49.806;18.774;2022-10-17T04:24:19;98505.88;;;17.05;65.13
41044;BME280;51680;49.806;18.774;2022-10-17T04:27:34;98515.69;;;17.03;65.14
41044;BME280;51680;49.806;18.774;2022-10-17T04:30:36;98522.38;;;16.96;65.56
41044;BME280;51680;49.806;18.774;2022-10-17T04:33:39;98511.88;;;17.07;65.39
41044;BME280;51680;49.806;18.774;2022-10-17T04:36:43;98506.84;;;17.04;65.30
41044;BME280;51680;49.806;18.774;2022-10-17T04:39:45;98517.94;;;16.97;65.43
41044;BME280;51680;49.806;18.774;2022-10-17T04:42:47;98512.13;;;16.92;65.58
41044;BME280;51680;49.806;18.774;2022-10-17T04:45:53;98520.03;;;16.92;65.64
41044;BME280;51680;49.806;18.774;2022-10-17T04:48:55;98518.38;;;16.91;65.29
41044;BME280;51680;49.806;18.774;2022-10-17T04:51:58;98521.97;;;16.90;65.58
41044;BME280;51680;49.806;18.774;2022-10-17T04:55:36;98521.97;;;16.90;65.48
41044;BME280;51680;49.806;18.774;2022-10-17T04:58:39;98517.53;;;16.90;65.37
41044;BME280;51680;49.806;18.774;2022-10-17T05:01:41;98513.84;;;16.93;65.43
41044;BME280;51680;49.806;18.774;2022-10-17T05:04:43;98513.75;;;16.94;65.54
41044;BME280;51680;49.806;18.774;2022-10-17T05:07:47;98523.03;;;16.87;65.60
41044;BME280;51680;49.806;18.774;2022-10-17T05:10:52;98521.66;;;16.94;65.54
41044;BME280;51680;49.806;18.774;2022-10-17T05:13:56;98534.00;;;16.94;65.38
41044;BME280;51680;49.806;18.774;2022-10-17T05:16:58;98530.19;;;16.98;65.60
41044;BME280;51680;49.806;18.774;2022-10-17T05:20:02;98527.44;;;16.99;65.34
41044;BME280;51680;49.806;18.774;2022-10-17T05:23:07;98527.84;;;16.93;65.22
41044;BME280;51680;49.806;18.774;2022-10-17T05:26:14;98529.63;;;17.41;64.35
41044;BME280;51680;49.806;18.774;2022-10-17T05:29:16;98520.00;;;17.98;62.54
41044;BME280;51680;49.806;18.774;2022-10-17T05:32:23;98519.91;;;18.68;60.65
41044;BME280;51680;49.806;18.774;2022-10-17T05:35:25;98521.06;;;19.19;58.68
41044;BME280;51680;49.806;18.774;2022-10-17T05:38:28;98524.88;;;20.00;57.25
41044;BME280;51680;49.806;18.774;2022-10-17T05:41:30;98524.06;;;20.91;55.07
41044;BME280;51680;49.806;18.774;2022-10-17T05:44:32;98526.44;;;21.43;53.23
41044;BME280;51680;49.806;18.774;2022-10-17T05:47:34;98526.25;;;22.03;52.06
41044;BME280;51680;49.806;18.774;2022-10-17T05:50:37;98530.38;;;22.62;50.50
41044;BME280;51680;49.806;18.774;2022-10-17T05:53:46;98529.63;;;23.06;48.70
41044;BME280;51680;49.806;18.774;2022-10-17T05:56:55;98521.84;;;22.86;48.79
41044;BME280;51680;49.806;18.774;2022-10-17T06:00:03;98539.63;;;23.49;46.94
41044;BME280;51680;49.806;18.774;2022-10-17T06:03:14;98536.31;;;23.82;47.07
41044;BME280;51680;49.806;18.774;2022-10-17T06:06:17;98538.72;;;24.45;46.12
41044;BME280;51680;49.806;18.774;2022-10-17T06:09:22;98544.56;;;25.25;44.10
41044;BME280;51680;49.806;18.774;2022-10-17T06:12:26;98542.31;;;25.46;44.20
41044;BME280;51680;49.806;18.774;2022-10-17T06:15:28;98543.84;;;25.57;43.36
41044;BME280;51680;49.806;18.774;2022-10-17T06:18:35;98555.31;;;25.99;42.34
41044;BME280;51680;49.806;18.774;2022-10-17T06:21:37;98556.00;;;26.25;41.82
41044;BME280;51680;49.806;18.774;2022-10-17T06:24:49;98561.03;;;27.30;40.76
41044;BME280;51680;49.806;18.774;2022-10-17T06:27:52;98563.69;;;27.77;39.53
41044;BME280;51680;49.806;18.774;2022-10-17T06:30:55;98556.28;;;28.69;38.29
41044;BME280;51680;49.806;18.774;2022-10-17T06:33:57;98565.72;;;29.31;37.34
41044;BME280;51680;49.806;18.774;2022-10-17T06:36:59;98562.19;;;29.16;36.41
41044;BME280;51680;49.806;18.774;2022-10-17T06:40:04;98569.28;;;29.67;35.55
41044;BME280;51680;49.806;18.774;2022-10-17T06:43:08;98573.50;;;30.26;35.49
41044;BME280;51680;49.806;18.774;2022-10-17T06:46:27;98573.56;;;30.54;34.93
41044;BME280;51680;49.806;18.774;2022-10-17T06:49:32;98577.34;;;31.14;33.99
41044;BME280;51680;49.806;18.774;2022-10-17T06:52:58;98587.81;;;30.96;34.09
41044;BME280;51680;49.806;18.774;2022-10-17T06:56:37;98584.03;;;31.18;33.37
41044;BME280;51680;49.806;18.774;2022-10-17T06:59:41;98584.66;;;31.54;32.93
41044;BME280;51680;49.806;18.774;2022-10-17T07:02:52;98600.06;;;32.14;31.94
41044;BME280;51680;49.806;18.774;2022-10-17T07:05:55;98598.44;;;31.72;32.29
41044;BME280;51680;49.806;18.774;2022-10-17T07:09:17;98592.56;;;30.25;32.77
41044;BME280;51680;49.806;18.774;2022-10-17T07:12:20;98582.31;;;29.99;32.98
41044;BME280;51680;49.806;18.774;2022-10-17T07:15:24;98586.66;;;30.36;33.51
41044;BME280;51680;49.806;18.774;2022-10-17T07:18:26;98586.03;;;30.82;32.60
41044;BME280;51680;49.806;18.774;2022-10-17T07:21:28;98598.22;;;30.72;32.32
41044;BME280;51680;49.806;18.774;2022-10-17T07:24:30;98592.09;;;30.84;32.59
41044;BME280;51680;49.806;18.774;2022-10-17T07:27:42;98593.53;;;31.42;32.32
41044;BME280;51680;49.806;18.774;2022-10-17T07:30:44;98603.44;;;31.69;31.30
41044;BME280;51680;49.806;18.774;2022-10-17T07:33:46;98604.53;;;32.34;30.85
41044;BME280;51680;49.806;18.774;2022-10-17T07:36:48;98602.97;;;31.99;30.34
41044;BME280;51680;49.806;18.774;2022-10-17T07:39:51;98608.38;;;31.99;31.08
41044;BME280;51680;49.806;18.774;2022-10-17T07:42:55;98604.97;;;31.78;30.74
41044;BME280;51680;49.806;18.774;2022-10-17T07:45:59;98608.94;;;31.82;31.02
41044;BME280;51680;49.806;18.774;2022-10-17T07:49:01;98614.75;;;32.58;28.15
41044;BME280;51680;49.806;18.774;2022-10-17T07:52:03;98617.44;;;32.58;30.20
41044;BME280;51680;49.806;18.774;2022-10-17T07:55:06;98604.13;;;33.28;29.43
41044;BME280;51680;49.806;18.774;2022-10-17T07:58:10;98616.63;;;34.43;27.77
41044;BME280;51680;49.806;18.774;2022-10-17T08:01:11;98613.75;;;34.38;28.13
41044;BME280;51680;49.806;18.774;2022-10-17T08:04:13;98611.97;;;33.69;27.96
41044;BME280;51680;49.806;18.774;2022-10-17T08:07:16;98612.88;;;32.59;28.30
41044;BME280;51680;49.806;18.774;2022-10-17T08:10:19;98619.75;;;32.48;29.88
41044;BME280;51680;49.806;18.774;2022-10-17T08:13:22;98601.66;;;31.48;29.07
41044;BME280;51680;49.806;18.774;2022-10-17T08:16:24;98605.56;;;31.39;30.66
41044;BME280;51680;49.806;18.774;2022-10-17T08:19:25;98610.00;;;31.53;30.53
41044;BME280;51680;49.806;18.774;2022-10-17T08:22:27;98603.53;;;31.20;30.63
41044;BME280;51680;49.806;18.774;2022-10-17T08:25:29;98603.19;;;31.23;30.51
41044;BME280;51680;49.806;18.774;2022-10-17T08:28:34;98612.00;;;30.62;30.47
41044;BME280;51680;49.806;18.774;2022-10-17T08:31:36;98608.72;;;31.49;31.19
41044;BME280;51680;49.806;18.774;2022-10-17T08:34:38;98614.56;;;30.91;31.24
41044;BME280;51680;49.806;18.774;2022-10-17T08:37:40;98612.94;;;31.99;30.55
41044;BME280;51680;49.806;18.774;2022-10-17T08:40:42;98608.09;;;31.81;30.60
41044;BME280;51680;49.806;18.774;2022-10-17T08:43:57;98608.59;;;31.23;29.21
41044;BME280;51680;49.806;18.774;2022-10-17T08:47:05;98613.59;;;31.60;30.06
41044;BME280;51680;49.806;18.774;2022-10-17T08:50:32;98610.69;;;31.00;31.55
41044;BME280;51680;49.806;18.774;2022-10-17T08:53:38;98617.22;;;32.27;29.85
41044;BME280;51680;49.806;18.774;2022-10-17T08:56:43;98619.50;;;32.30;30.60
41044;BME280;51680;49.806;18.774;2022-10-17T08:59:49;98615.19;;;33.20;28.87
41044;BME280;51680;49.806;18.774;2022-10-17T09:03:03;98614.56;;;32.86;27.97
41044;BME280;51680;49.806;18.774;2022-10-17T09:06:16;98617.28;;;32.00;29.90
41044;BME280;51680;49.806;18.774;2022-10-17T09:09:28;98624.72;;;32.38;28.84
41044;BME280;51680;49.806;18.774;2022-10-17T09:12:42;98618.91;;;32.67;28.50
41044;BME280;51680;49.806;18.774;2022-10-17T09:16:10;98616.75;;;31.70;29.15
41044;BME280;51680;49.806;18.774;2022-10-17T09:19:18;98623.19;;;30.80;31.07
41044;BME280;51680;49.806;18.774;2022-10-17T09:22:24;98622.41;;;30.44;31.96
41044;BME280;51680;49.806;18.774;2022-10-17T09:25:31;98621.59;;;30.86;31.07
41044;BME280;51680;49.806;18.774;2022-10-17T09:28:37;98619.25;;;31.31;30.38
41044;BME280;51680;49.806;18.774;2022-10-17T09:31:44;98624.16;;;31.21;31.56
41044;BME280;51680;49.806;18.774;2022-10-17T09:34:47;98629.38;;;30.74;32.13
41044;BME280;51680;49.806;18.774;2022-10-17T09:37:49;98621.00;;;29.77;32.45
41044;BME280;51680;49.806;18.774;2022-10-17T09:40:54;98631.03;;;28.51;33.54
41044;BME280;51680;49.806;18.774;2022-10-17T09:43:58;98624.72;;;29.03;33.17
41044;BME280;51680;49.806;18.774;2022-10-17T09:47:07;98630.38;;;29.23;32.49
41044;BME280;51680;49.806;18.774;2022-10-17T09:50:15;98642.75;;;28.58;32.79
41044;BME280;51680;49.806;18.774;2022-10-17T09:53:23;98638.75;;;28.01;34.27
41044;BME280;51680;49.806;18.774;2022-10-17T09:56:28;98638.72;;;27.70;34.96
41044;BME280;51680;49.806;18.774;2022-10-17T09:59:32;98642.53;;;27.84;34.63
41044;BME280;51680;49.806;18.774;2022-10-17T10:02:35;98638.34;;;27.81;35.36
41044;BME280;51680;49.806;18.774;2022-10-17T10:05:41;98636.38;;;28.73;34.55
41044;BME280;51680;49.806;18.774;2022-10-17T10:08:48;98637.09;;;28.53;33.81
41044;BME280;51680;49.806;18.774;2022-10-17T10:11:53;98633.19;;;28.55;33.85
41044;BME280;51680;49.806;18.774;2022-10-17T10:14:55;98630.16;;;28.28;34.11
41044;BME280;51680;49.806;18.774;2022-10-17T10:17:59;98618.97;;;29.50;33.01
41044;BME280;51680;49.806;18.774;2022-10-17T10:21:04;98626.78;;;29.45;32.50
41044;BME280;51680;49.806;18.774;2022-10-17T10:24:11;98631.75;;;28.45;32.59
41044;BME280;51680;49.806;18.774;2022-10-17T10:27:15;98621.59;;;28.92;33.82
41044;BME280;51680;49.806;18.774;2022-10-17T10:30:20;98614.53;;;29.42;32.16
41044;BME280;51680;49.806;18.774;2022-10-17T10:33:29;98626.88;;;29.23;32.33
41044;BME280;51680;49.806;18.774;2022-10-17T10:36:51;98620.72;;;28.40;33.31
41044;BME280;51680;49.806;18.774;2022-10-17T10:39:56;98633.03;;;26.87;36.15
41044;BME280;51680;49.806;18.774;2022-10-17T10:42:59;98624.84;;;26.40;36.87
41044;BME280;51680;49.806;18.774;2022-10-17T10:46:04;98621.63;;;26.21;37.40
41044;BME280;51680;49.806;18.774;2022-10-17T10:49:28;98621.28;;;26.32;38.75
41044;BME280;51680;49.806;18.774;2022-10-17T10:52:32;98620.91;;;25.95;37.71
41044;BME280;51680;49.806;18.774;2022-10-17T10:55:40;98619.44;;;26.08;38.19
41044;BME280;51680;49.806;18.774;2022-10-17T10:58:50;98610.75;;;25.65;38.05
41044;BME280;51680;49.806;18.774;2022-10-17T11:01:55;98617.78;;;25.66;39.13
41044;BME280;51680;49.806;18.774;2022-10-17T11:05:02;98609.75;;;25.66;39.40
41044;BME280;51680;49.806;18.774;2022-10-17T11:08:10;98614.47;;;25.72;39.35
41044;BME280;51680;49.806;18.774;2022-10-17T11:11:20;98615.00;;;25.83;38.17
41044;BME280;51680;49.806;18.774;2022-10-17T11:14:35;98610.03;;;25.55;38.95
41044;BME280;51680;49.806;18.774;2022-10-17T11:17:41;98613.53;;;25.22;39.04
41044;BME280;51680;49.806;18.774;2022-10-17T11:20:51;98613.22;;;25.25;39.53
41044;BME280;51680;49.806;18.774;2022-10-17T11:23:59;98613.22;;;25.25;39.32
41044;BME280;51680;49.806;18.774;2022-10-17T11:27:03;98616.00;;;25.15;39.45
41044;BME280;51680;49.806;18.774;2022-10-17T11:30:08;98613.00;;;25.18;39.29
41044;BME280;51680;49.806;18.774;2022-10-17T11:33:17;98597.81;;;25.19;39.19
41044;BME280;51680;49.806;18.774;2022-10-17T11:36:25;98600.22;;;24.96;39.52
41044;BME280;51680;49.806;18.774;2022-10-17T11:39:43;98602.13;;;25.12;40.29
41044;BME280;51680;49.806;18.774;2022-10-17T11:42:52;98600.53;;;25.27;39.83
41044;BME280;51680;49.806;18.774;2022-10-17T11:46:00;98600.22;;;25.04;39.97
41044;BME280;51680;49.806;18.774;2022-10-17T11:49:09;98597.41;;;25.06;40.36
41044;BME280;51680;49.806;18.774;2022-10-17T11:52:27;98598.28;;;24.81;40.30
41044;BME280;51680;49.806;18.774;2022-10-17T11:55:31;98594.09;;;24.86;40.57
41044;BME280;51680;49.806;18.774;2022-10-17T11:58:37;98582.44;;;24.87;39.74
41044;BME280;51680;49.806;18.774;2022-10-17T12:01:46;98593.13;;;24.87;39.54
41044;BME280;51680;49.806;18.774;2022-10-17T12:04:55;98595.00;;;24.69;40.19
41044;BME280;51680;49.806;18.774;2022-10-17T12:08:07;98598.50;;;24.70;40.44
41044;BME280;51680;49.806;18.774;2022-10-17T12:11:13;98589.97;;;24.92;40.39
41044;BME280;51680;49.806;18.774;2022-10-17T12:14:40;98587.97;;;24.94;40.13
41044;BME280;51680;49.806;18.774;2022-10-17T12:17:44;98586.72;;;25.06;40.46
41044;BME280;51680;49.806;18.774;2022-10-17T12:20:54;98584.78;;;24.90;39.55
41044;BME280;51680;49.806;18.774;2022-10-17T12:23:58;98585.38;;;24.76;40.22
41044;BME280;51680;49.806;18.774;2022-10-17T12:30:35;98578.84;;;24.71;40.77
41044;BME280;51680;49.806;18.774;2022-10-17T12:33:38;98578.03;;;24.78;41.17
41044;BME280;51680;49.806;18.774;2022-10-17T12:36:48;98586.00;;;24.96;40.80
41044;BME280;51680;49.806;18.774;2022-10-17T12:39:51;98580.00;;;25.02;40.64
41044;BME280;51680;49.806;18.774;2022-10-17T12:42:53;98581.59;;;24.87;40.34
41044;BME280;51680;49.806;18.774;2022-10-17T12:45:56;98583.63;;;24.93;40.86
41044;BME280;51680;49.806;18.774;2022-10-17T12:49:00;98570.91;;;24.87;40.66
41044;BME280;51680;49.806;18.774;2022-10-17T12:52:22;98576.16;;;24.71;40.28
41044;BME280;51680;49.806;18.774;2022-10-17T12:55:25;98576.16;;;24.71;40.86
41044;BME280;51680;49.806;18.774;2022-10-17T12:58:28;98580.13;;;24.67;41.22
41044;BME280;51680;49.806;18.774;2022-10-17T13:01:33;98581.81;;;24.68;40.74
41044;BME280;51680;49.806;18.774;2022-10-17T13:04:37;98584.53;;;24.76;40.59
41044;BME280;51680;49.806;18.774;2022-10-17T13:08:00;98585.69;;;24.73;40.67
41044;BME280;51680;49.806;18.774;2022-10-17T13:11:04;98581.50;;;24.71;41.24
41044;BME280;51680;49.806;18.774;2022-10-17T13:14:11;98581.88;;;24.76;41.21
41044;BME280;51680;49.806;18.774;2022-10-17T13:17:22;98584.41;;;24.60;40.06
41044;BME280;51680;49.806;18.774;2022-10-17T13:20:26;98590.59;;;24.60;41.11
41044;BME280;51680;49.806;18.774;2022-10-17T13:23:32;98584.97;;;24.63;40.98
41044;BME280;51680;49.806;18.774;2022-10-17T13:26:35;98587.09;;;24.60;41.08
41044;BME280;51680;49.806;18.774;2022-10-17T13:29:43;98581.13;;;24.66;41.32
41044;BME280;51680;49.806;18.774;2022-10-17T13:32:45;98578.66;;;24.55;41.15
41044;BME280;51680;49.806;18.774;2022-10-17T13:35:47;98585.78;;;24.46;41.24
41044;BME280;51680;49.806;18.774;2022-10-17T13:39:09;98596.72;;;24.35;41.51
41044;BME280;51680;49.806;18.774;2022-10-17T13:42:21;98586.88;;;24.18;41.39
41044;BME280;51680;49.806;18.774;2022-10-17T13:45:28;98577.06;;;24.19;42.09
41044;BME280;51680;49.806;18.774;2022-10-17T13:48:33;98583.59;;;24.24;42.54
41044;BME280;51680;49.806;18.774;2022-10-17T13:51:36;98579.72;;;24.19;42.66
41044;BME280;51680;49.806;18.774;2022-10-17T13:54:39;98590.06;;;24.22;42.68
41044;BME280;51680;49.806;18.774;2022-10-17T13:57:42;98580.78;;;24.26;42.54
41044;BME280;51680;49.806;18.774;2022-10-17T14:00:44;98582.03;;;24.14;42.71
41044;BME280;51680;49.806;18.774;2022-10-17T14:03:47;98576.59;;;24.06;42.63
41044;BME280;51680;49.806;18.774;2022-10-17T14:06:49;98588.19;;;23.97;42.66
41044;BME280;51680;49.806;18.774;2022-10-17T14:10:21;98584.97;;;23.93;42.96
41044;BME280;51680;49.806;18.774;2022-10-17T14:13:26;98583.94;;;23.77;42.92
41044;BME280;51680;49.806;18.774;2022-10-17T14:16:36;98582.13;;;23.77;43.11
41044;BME280;51680;49.806;18.774;2022-10-17T14:19:38;98578.13;;;23.64;43.43
41044;BME280;51680;49.806;18.774;2022-10-17T14:22:40;98573.88;;;23.71;43.49
41044;BME280;51680;49.806;18.774;2022-10-17T14:25:42;98573.13;;;23.61;43.58
41044;BME280;51680;49.806;18.774;2022-10-17T14:28:47;98574.00;;;23.52;43.62
41044;BME280;51680;49.806;18.774;2022-10-17T14:31:49;98580.53;;;23.40;43.88
41044;BME280;51680;49.806;18.774;2022-10-17T14:34:54;98577.91;;;23.30;44.07
41044;BME280;51680;49.806;18.774;2022-10-17T14:37:58;98581.41;;;23.31;44.49
41044;BME280;51680;49.806;18.774;2022-10-17T14:41:02;98584.38;;;23.28;44.45
41044;BME280;51680;49.806;18.774;2022-10-17T14:44:16;98579.66;;;23.22;44.74
41044;BME280;51680;49.806;18.774;2022-10-17T14:47:22;98583.97;;;23.13;44.91
41044;BME280;51680;49.806;18.774;2022-10-17T14:50:27;98594.38;;;23.07;44.65
41044;BME280;51680;49.806;18.774;2022-10-17T14:53:29;98586.78;;;22.85;45.13
41044;BME280;51680;49.806;18.774;2022-10-17T14:56:38;98576.56;;;22.71;45.36
41044;BME280;51680;49.806;18.774;2022-10-17T14:59:42;98573.91;;;22.71;45.71
41044;BME280;51680;49.806;18.774;2022-10-17T15:02:45;98569.56;;;22.70;45.52
41044;BME280;51680;49.806;18.774;2022-10-17T15:05:48;98571.53;;;22.68;45.58
41044;BME280;51680;49.806;18.774;2022-10-17T15:08:49;98571.44;;;22.60;45.91
41044;BME280;51680;49.806;18.774;2022-10-17T15:11:51;98571.03;;;22.55;46.02
41044;BME280;51680;49.806;18.774;2022-10-17T15:14:54;98567.94;;;22.50;46.19
41044;BME280;51680;49.806;18.774;2022-10-17T15:17:56;98574.91;;;22.41;46.64
41044;BME280;51680;49.806;18.774;2022-10-17T15:20:58;98565.38;;;22.39;46.71
41044;BME280;51680;49.806;18.774;2022-10-17T15:24:00;98564.03;;;22.25;46.99
41044;BME280;51680;49.806;18.774;2022-10-17T15:27:06;98567.50;;;22.26;47.35
41044;BME280;51680;49.806;18.774;2022-10-17T15:30:17;98569.75;;;22.21;47.67
41044;BME280;51680;49.806;18.774;2022-10-17T15:33:19;98575.22;;;22.10;47.59
41044;BME280;51680;49.806;18.774;2022-10-17T15:36:23;98576.38;;;21.98;47.91
41044;BME280;51680;49.806;18.774;2022-10-17T15:39:25;98574.94;;;21.94;47.89
41044;BME280;51680;49.806;18.774;2022-10-17T15:42:28;98579.97;;;21.87;48.08
41044;BME280;51680;49.806;18.774;2022-10-17T15:45:32;98583.59;;;21.77;48.54
41044;BME280;51680;49.806;18.774;2022-10-17T15:48:35;98583.84;;;21.64;48.85
41044;BME280;51680;49.806;18.774;2022-10-17T15:51:37;98585.22;;;21.59;48.80
41044;BME280;51680;49.806;18.774;2022-10-17T15:54:39;98578.19;;;21.39;49.31
41044;BME280;51680;49.806;18.774;2022-10-17T15:57:42;98579.59;;;21.33;49.27
41044;BME280;51680;49.806;18.774;2022-10-17T16:00:46;98582.63;;;21.29;49.69
41044;BME280;51680;49.806;18.774;2022-10-17T16:03:48;98588.97;;;20.98;50.88
41044;BME280;51680;49.806;18.774;2022-10-17T16:07:09;98587.00;;;21.00;50.22
41044;BME280;51680;49.806;18.774;2022-10-17T16:10:11;98593.28;;;20.99;50.11
41044;BME280;51680;49.806;18.774;2022-10-17T16:13:16;98588.78;;;20.90;50.66
41044;BME280;51680;49.806;18.774;2022-10-17T16:16:19;98593.94;;;20.91;50.71
41044;BME280;51680;49.806;18.774;2022-10-17T16:19:22;98585.72;;;20.74;50.91